createdAt,value
2019-05-22T00:03:35.624Z,50.93
2019-05-22T00:07:45.767Z,43.47
2019-05-22T00:11:56.558Z,46.47
2019-05-22T00:16:06.132Z,54.20
2019-05-22T00:20:16.949Z,45.50
2019-05-22T00:24:26.700Z,43.30
2019-05-22T00:28:37.827Z,49.57
2019-05-22T00:32:47.629Z,43.83
2019-05-22T00:36:56.693Z,43.10
2019-05-22T00:41:09.611Z,37.13
2019-05-22T00:45:19.644Z,38.47
2019-05-22T00:49:30.618Z,33.57
2019-05-22T00:53:49.943Z,40.47
2019-05-22T00:58:06.701Z,41.43
2019-05-22T01:02:19.423Z,45.80
2019-05-22T01:06:30.727Z,44.40
2019-05-22T01:10:41.041Z,43.07
2019-05-22T01:14:50.710Z,45.27
2019-05-22T01:19:00.493Z,42.30
2019-05-22T01:23:12.102Z,34.00
2019-05-22T01:27:21.230Z,43.77
2019-05-22T01:31:40.954Z,43.30
2019-05-22T01:35:51.211Z,37.23
2019-05-22T01:40:08.819Z,37.87
2019-05-22T01:44:18.990Z,40.60
2019-05-22T01:48:36.920Z,33.33
2019-05-22T01:52:48.511Z,21.30
2019-05-22T01:57:06.969Z,16.23
2019-05-22T02:01:18.106Z,16.30
2019-05-22T02:05:26.876Z,20.63
2019-05-22T02:09:38.774Z,17.07
2019-05-22T02:13:59.264Z,17.70
2019-05-22T02:18:10.947Z,13.10
2019-05-22T02:22:20.217Z,14.30
2019-05-22T02:26:29.079Z,13.70
2019-05-22T02:30:39.289Z,17.17
2019-05-22T02:34:47.908Z,17.23
2019-05-22T02:39:18.112Z,17.57
2019-05-22T02:43:36.090Z,14.47
2019-05-22T02:47:45.578Z,13.50
2019-05-22T02:51:56.292Z,17.43
2019-05-22T02:56:06.467Z,12.80
2019-05-22T03:00:16.592Z,13.13
2019-05-22T03:04:28.005Z,13.33
2019-05-22T03:08:57.871Z,15.17
2019-05-22T03:13:11.066Z,15.40
2019-05-22T03:17:28.202Z,12.40
2019-05-22T03:21:37.870Z,17.80
2019-05-22T03:25:46.477Z,14.63
2019-05-22T03:29:56.848Z,17.50
2019-05-22T03:34:05.457Z,13.27
2019-05-22T03:38:15.411Z,19.43
2019-05-22T03:42:24.774Z,20.30
2019-05-22T03:46:59.289Z,17.30
2019-05-22T03:51:14.156Z,15.10
2019-05-22T03:55:22.939Z,16.03
2019-05-22T03:59:32.010Z,15.73
2019-05-22T04:03:41.313Z,34.07
2019-05-22T04:07:52.811Z,16.30
2019-05-22T04:12:02.309Z,15.43
2019-05-22T04:16:12.705Z,22.90
2019-05-22T04:20:22.630Z,21.17
2019-05-22T04:24:32.345Z,22.23
2019-05-22T04:28:49.591Z,26.73
2019-05-22T04:32:59.475Z,23.40
2019-05-22T04:37:10.224Z,23.10
2019-05-22T04:41:19.434Z,25.17
2019-05-22T04:45:29.263Z,18.70
2019-05-22T04:49:38.335Z,18.10
2019-05-22T04:53:47.051Z,19.67
2019-05-22T04:57:57.527Z,17.00
2019-05-22T05:02:06.811Z,19.80
2019-05-22T05:06:17.145Z,18.70
2019-05-22T05:10:26.761Z,26.00
2019-05-22T05:14:35.688Z,20.70
2019-05-22T05:18:44.922Z,28.17
2019-05-22T05:22:53.679Z,21.13
2019-05-22T05:27:03.143Z,21.20
2019-05-22T05:31:12.210Z,25.97
2019-05-22T05:35:40.306Z,24.63
2019-05-22T05:39:54.719Z,27.80
2019-05-22T05:44:04.648Z,22.80
2019-05-22T05:48:16.296Z,19.50
2019-05-22T05:52:28.489Z,23.83
2019-05-22T05:56:39.336Z,23.67
2019-05-22T06:00:55.657Z,28.63
2019-05-22T06:05:05.237Z,21.60
2019-05-22T06:09:21.935Z,24.30
2019-05-22T06:13:30.736Z,20.53
2019-05-22T06:17:57.426Z,26.53
2019-05-22T06:22:08.507Z,23.27
2019-05-22T06:26:23.118Z,22.70
2019-05-22T06:30:41.296Z,15.50
2019-05-22T06:34:50.721Z,17.50
2019-05-22T06:39:02.713Z,16.87
2019-05-22T06:43:25.050Z,18.10
2019-05-22T06:47:34.165Z,17.13
2019-05-22T06:51:42.787Z,17.27
2019-05-22T06:55:51.569Z,15.90
2019-05-22T07:00:13.493Z,16.67
2019-05-22T07:04:12.815Z,16.10
2019-05-22T07:08:24.998Z,13.10
2019-05-22T07:12:34.821Z,13.17
2019-05-22T07:16:44.752Z,13.73
2019-05-22T07:20:54.734Z,10.20
2019-05-22T07:25:06.422Z,13.07
2019-05-22T07:29:16.948Z,14.43
2019-05-22T07:33:26.339Z,10.30
2019-05-22T07:37:42.762Z,12.50
2019-05-22T07:41:51.408Z,11.80
2019-05-22T07:46:00.745Z,14.20
2019-05-22T07:50:11.610Z,10.80
2019-05-22T07:54:20.307Z,14.00
2019-05-22T07:58:31.293Z,11.17
2019-05-22T08:02:42.962Z,12.37
2019-05-22T08:06:51.654Z,11.30
2019-05-22T08:11:00.786Z,12.77
2019-05-22T08:15:10.879Z,10.63
2019-05-22T08:19:19.585Z,14.30
2019-05-22T08:23:29.618Z,12.17
2019-05-22T08:28:03.834Z,11.83
2019-05-22T08:32:12.717Z,13.30
2019-05-22T08:36:22.388Z,11.57
2019-05-22T08:40:32.350Z,10.30
2019-05-22T08:44:41.709Z,10.83
2019-05-22T08:48:51.403Z,12.83
2019-05-22T08:53:01.086Z,10.50
2019-05-22T08:57:10.784Z,10.07
2019-05-22T09:01:39.027Z,12.87
2019-05-22T09:05:47.686Z,11.50
2019-05-22T09:09:57.371Z,11.43
2019-05-22T09:14:05.983Z,12.93
2019-05-22T09:18:14.842Z,11.63
2019-05-22T09:22:39.120Z,10.80
2019-05-22T09:26:33.995Z,9.50
2019-05-22T09:30:42.642Z,10.87
2019-05-22T09:34:52.011Z,9.73
2019-05-22T09:39:00.631Z,10.50
2019-05-22T09:43:09.315Z,10.90
2019-05-22T09:47:38.953Z,11.17
2019-05-22T09:51:47.906Z,11.00
2019-05-22T09:55:56.803Z,9.13
2019-05-22T10:00:08.610Z,10.63
2019-05-22T10:04:17.753Z,13.10
2019-05-22T10:08:26.958Z,16.53
2019-05-22T10:12:35.741Z,10.93
2019-05-22T10:16:44.417Z,10.63
2019-05-22T10:20:53.672Z,13.23
2019-05-22T10:25:14.717Z,10.70
2019-05-22T10:29:12.947Z,9.93
2019-05-22T10:33:21.899Z,10.53
2019-05-22T10:37:31.474Z,10.58
2019-05-22T10:41:41.175Z,17.40
2019-05-22T10:45:49.862Z,9.53
2019-05-22T10:49:58.478Z,9.70
2019-05-22T10:54:07.391Z,8.70
2019-05-22T10:58:16.247Z,11.37
2019-05-22T11:02:24.953Z,13.60
2019-05-22T11:06:33.782Z,10.87
2019-05-22T11:10:45.178Z,10.63
2019-05-22T11:14:53.547Z,10.73
2019-05-22T11:19:03.264Z,11.70
2019-05-22T11:23:12.114Z,9.83
2019-05-22T11:27:21.357Z,13.83
2019-05-22T11:31:30.647Z,12.37
2019-05-22T11:35:39.980Z,10.07
2019-05-22T11:39:48.863Z,10.13
2019-05-22T11:43:57.647Z,12.33
2019-05-22T11:48:06.736Z,14.47
2019-05-22T11:52:15.521Z,13.97
2019-05-22T11:56:24.827Z,17.60
2019-05-22T12:00:33.562Z,11.90
2019-05-22T12:04:47.922Z,11.37
2019-05-22T12:08:52.977Z,11.30
2019-05-22T12:13:02.601Z,10.17
2019-05-22T12:17:11.576Z,10.37
2019-05-22T12:21:20.503Z,10.27
2019-05-22T12:25:30.050Z,11.27
2019-05-22T12:29:39.454Z,11.80
2019-05-22T12:34:07.848Z,9.20
2019-05-22T12:38:17.276Z,10.40
2019-05-22T12:42:45.573Z,10.40
2019-05-22T12:46:54.884Z,10.97
2019-05-22T12:51:04.160Z,9.28
2019-05-22T12:55:13.150Z,15.20
2019-05-22T12:59:22.723Z,11.30
2019-05-22T13:03:35.120Z,12.17
2019-05-22T13:07:43.952Z,11.90
2019-05-22T13:11:53.005Z,10.77
2019-05-22T13:16:05.744Z,9.33
2019-05-22T13:20:18.043Z,11.28
2019-05-22T13:24:28.201Z,11.60
2019-05-22T13:28:39.498Z,12.13
2019-05-22T13:32:49.397Z,11.87
2019-05-22T13:36:58.091Z,9.87
2019-05-22T13:41:07.689Z,10.33
2019-05-22T13:45:28.429Z,10.77
2019-05-22T13:49:29.034Z,9.97
2019-05-22T13:53:37.991Z,10.13
2019-05-22T13:57:48.256Z,10.13
2019-05-22T14:01:57.303Z,8.83
2019-05-22T14:06:06.334Z,9.00
2019-05-22T14:10:16.048Z,8.57
2019-05-22T14:14:25.098Z,7.47
2019-05-22T14:18:34.255Z,11.93
2019-05-22T14:22:42.978Z,10.73
2019-05-22T14:26:51.949Z,12.37
2019-05-22T14:31:00.968Z,10.13
2019-05-22T14:35:10.041Z,8.60
2019-05-22T14:39:21.158Z,10.10
2019-05-22T14:43:30.073Z,9.40
2019-05-22T14:47:38.799Z,9.37
2019-05-22T14:51:47.644Z,11.20
2019-05-22T14:55:57.774Z,10.50
2019-05-22T15:00:09.813Z,11.57
2019-05-22T15:04:18.709Z,12.07
2019-05-22T15:08:27.363Z,13.03
2019-05-22T15:12:36.599Z,10.40
2019-05-22T15:16:45.761Z,11.77
2019-05-22T15:20:56.714Z,10.40
2019-05-22T15:25:09.328Z,11.70
2019-05-22T15:29:18.879Z,10.87
2019-05-22T15:33:28.124Z,11.30
2019-05-22T15:37:37.587Z,13.90
2019-05-22T15:41:46.864Z,11.43
2019-05-22T15:45:57.824Z,10.23
2019-05-22T15:50:11.042Z,10.67
2019-05-22T15:54:20.910Z,11.80
2019-05-22T15:58:31.280Z,12.70
2019-05-22T16:02:41.497Z,12.60
2019-05-22T16:06:51.722Z,14.60
2019-05-22T16:11:02.161Z,10.40
2019-05-22T16:15:12.865Z,11.97
2019-05-22T16:19:41.210Z,12.17
2019-05-22T16:23:51.673Z,13.47
2019-05-22T16:28:01.890Z,11.67
2019-05-22T16:32:12.141Z,14.23
2019-05-22T16:36:42.713Z,11.27
2019-05-22T16:40:51.774Z,11.47
2019-05-22T16:45:01.383Z,12.00
2019-05-22T16:49:10.821Z,11.93
2019-05-22T16:53:19.877Z,12.20
2019-05-22T16:57:48.449Z,10.90
2019-05-22T17:02:00.276Z,12.67
2019-05-22T17:06:08.943Z,11.93
2019-05-22T17:10:18.489Z,10.37
2019-05-22T17:14:28.838Z,13.50
2019-05-22T17:18:47.623Z,12.67
2019-05-22T17:22:48.486Z,14.33
2019-05-22T17:26:57.598Z,10.60
2019-05-22T17:31:07.636Z,11.93
2019-05-22T17:35:17.199Z,10.20
2019-05-22T17:39:27.133Z,9.43
2019-05-22T17:43:37.362Z,9.37
2019-05-22T17:47:46.601Z,12.17
2019-05-22T17:51:55.511Z,9.63
2019-05-22T17:56:04.329Z,14.50
2019-05-22T18:09:05.061Z,9.03
2019-05-22T18:13:15.226Z,8.13
2019-05-22T18:17:24.450Z,9.03
2019-05-22T18:21:34.018Z,8.73
2019-05-22T18:25:44.557Z,7.50
2019-05-22T18:29:53.484Z,9.63
2019-05-22T18:34:02.454Z,8.77
2019-05-22T18:38:11.415Z,10.73
2019-05-22T18:42:20.868Z,8.87
2019-05-22T18:46:29.742Z,11.37
2019-05-22T18:50:38.515Z,11.13
2019-05-22T18:54:47.185Z,10.93
2019-05-22T18:58:56.713Z,12.20
2019-05-22T19:03:06.080Z,10.47
2019-05-22T19:07:14.670Z,11.33
2019-05-22T19:11:23.538Z,10.93
2019-05-22T19:15:32.686Z,10.23
2019-05-22T19:19:41.523Z,10.47
2019-05-22T19:23:50.491Z,10.90
2019-05-22T19:27:59.185Z,12.03
2019-05-22T19:32:08.091Z,10.90
2019-05-22T19:36:16.781Z,10.80
2019-05-22T19:40:25.377Z,10.93
2019-05-22T19:44:34.003Z,14.57
2019-05-22T19:48:43.200Z,15.43
2019-05-22T19:52:53.161Z,15.17
2019-05-22T19:57:02.120Z,15.77
2019-05-22T20:01:11.573Z,16.60
2019-05-22T20:05:22.139Z,15.63
2019-05-22T20:09:31.313Z,20.73
2019-05-22T20:13:40.554Z,14.43
2019-05-22T20:17:49.314Z,15.57
2019-05-22T20:22:00.367Z,14.47
2019-05-22T20:26:12.758Z,15.57
2019-05-22T20:30:22.930Z,15.67
2019-05-22T20:34:31.755Z,16.10
2019-05-22T20:38:40.663Z,17.77
2019-05-22T20:42:49.457Z,24.47
2019-05-22T20:46:58.391Z,21.10
2019-05-22T20:51:27.361Z,22.47
2019-05-22T20:55:37.125Z,21.93
2019-05-22T20:59:45.895Z,24.43
2019-05-22T21:03:55.619Z,19.63
2019-05-22T21:08:07.281Z,25.30
2019-05-22T21:12:17.841Z,23.13
2019-05-22T21:16:27.528Z,26.80
2019-05-22T21:20:53.318Z,30.60
2019-05-22T21:24:50.064Z,25.47
2019-05-22T21:28:58.862Z,28.40
2019-05-22T21:33:07.643Z,27.43
2019-05-22T21:37:18.718Z,29.87
2019-05-22T21:41:28.272Z,25.90
2019-05-22T21:45:37.251Z,24.17
2019-05-22T21:49:45.938Z,26.20
2019-05-22T21:53:54.855Z,25.13
2019-05-22T21:58:04.249Z,28.87
2019-05-22T22:02:19.205Z,29.50
2019-05-22T22:06:28.941Z,29.47
2019-05-22T22:10:37.889Z,25.43
2019-05-22T22:14:48.143Z,27.53
2019-05-22T22:18:57.661Z,28.07
2019-05-22T22:23:06.658Z,22.57
2019-05-22T22:27:15.927Z,23.27
2019-05-22T22:31:26.168Z,27.90
2019-05-22T22:35:35.430Z,29.33
2019-05-22T22:39:47.257Z,30.13
2019-05-22T22:43:58.472Z,25.37
2019-05-22T22:48:08.822Z,27.90
2019-05-22T22:52:19.451Z,25.10
2019-05-22T22:56:29.133Z,31.40
2019-05-22T23:00:40.130Z,33.07
2019-05-22T23:04:49.295Z,26.73
2019-05-22T23:08:57.938Z,23.77
2019-05-22T23:13:07.298Z,25.30
2019-05-22T23:17:16.640Z,27.33
2019-05-22T23:21:25.822Z,25.83
2019-05-22T23:25:34.455Z,32.17
2019-05-22T23:29:43.138Z,27.57
2019-05-22T23:33:52.202Z,25.10
2019-05-22T23:38:02.072Z,26.87
2019-05-22T23:42:16.494Z,26.20
2019-05-22T23:46:28.558Z,26.13
2019-05-22T23:50:38.960Z,27.23
2019-05-22T23:54:48.880Z,24.10
2019-05-22T23:58:58.855Z,26.47
